createdAt,value
2018-04-02T00:01:53.027Z,6.57
2018-04-02T00:04:56.469Z,6.77
2018-04-02T00:07:59.834Z,6.93
2018-04-02T00:11:03.181Z,6.33
2018-04-02T00:17:14.679Z,6.73
2018-04-02T00:20:18.035Z,6.63
2018-04-02T00:23:21.402Z,6.90
2018-04-02T00:26:24.780Z,8.07
2018-04-02T00:29:28.181Z,8.13
2018-04-02T00:32:31.528Z,8.67
2018-04-02T00:35:35.658Z,8.03
2018-04-02T00:38:39.050Z,7.57
2018-04-02T00:41:42.518Z,9.07
2018-04-02T00:44:46.012Z,7.93
2018-04-02T00:47:49.370Z,7.93
2018-04-02T00:50:52.712Z,5.93
2018-04-02T00:53:56.084Z,8.67
2018-04-02T00:56:59.440Z,9.20
2018-04-02T01:00:03.560Z,8.33
2018-04-02T01:03:06.940Z,8.80
2018-04-02T01:06:10.361Z,7.30
2018-04-02T01:09:13.681Z,7.93
2018-04-02T01:12:17.023Z,8.47
2018-04-02T01:15:21.176Z,8.03
2018-04-02T01:18:25.290Z,7.93
2018-04-02T01:21:28.626Z,8.97
2018-04-02T01:24:32.098Z,8.63
2018-04-02T01:27:35.458Z,8.00
2018-04-02T01:30:40.325Z,8.03
2018-04-02T01:33:43.678Z,8.77
2018-04-02T01:36:47.070Z,7.37
2018-04-02T01:39:50.422Z,6.80
2018-04-02T01:42:53.795Z,7.60
2018-04-02T01:45:57.144Z,7.40
2018-04-02T01:49:00.489Z,7.17
2018-04-02T01:52:03.834Z,7.43
2018-04-02T01:55:07.205Z,7.53
2018-04-02T01:58:11.329Z,6.77
2018-04-02T02:01:14.699Z,6.80
2018-04-02T02:04:18.854Z,6.40
2018-04-02T02:07:22.341Z,6.17
2018-04-02T02:10:26.464Z,5.97
2018-04-02T02:13:29.846Z,6.50
2018-04-02T02:16:33.978Z,6.00
2018-04-02T02:19:37.342Z,6.30
2018-04-02T02:22:41.509Z,5.57
2018-04-02T02:25:45.588Z,6.43
2018-04-02T02:28:48.960Z,5.17
2018-04-02T02:31:52.300Z,5.43
2018-04-02T02:34:56.457Z,5.60
2018-04-02T02:37:59.792Z,5.20
2018-04-02T02:41:03.151Z,5.23
2018-04-02T02:44:06.493Z,4.23
2018-04-02T02:47:09.874Z,3.80
2018-04-02T02:50:13.227Z,4.63
2018-04-02T02:53:16.613Z,3.27
2018-04-02T02:56:19.943Z,3.60
2018-04-02T02:59:23.297Z,3.60
2018-04-02T03:02:27.487Z,3.10
2018-04-02T03:05:30.842Z,3.33
2018-04-02T03:08:34.320Z,3.10
2018-04-02T03:11:38.433Z,3.47
2018-04-02T03:14:42.558Z,3.37
2018-04-02T03:17:46.669Z,3.53
2018-04-02T03:20:50.931Z,3.00
2018-04-02T03:23:54.392Z,3.33
2018-04-02T03:26:58.521Z,3.43
2018-04-02T03:30:01.871Z,3.57
2018-04-02T03:33:05.211Z,3.80
2018-04-02T03:36:09.386Z,4.90
2018-04-02T03:39:12.725Z,3.70
2018-04-02T03:42:16.902Z,4.50
2018-04-02T03:45:20.238Z,3.90
2018-04-02T03:48:24.359Z,4.53
2018-04-02T03:51:28.562Z,4.57
2018-04-02T03:54:32.678Z,3.77
2018-04-02T03:57:36.026Z,3.80
2018-04-02T04:00:39.366Z,3.50
2018-04-02T04:03:44.209Z,3.90
2018-04-02T04:06:48.332Z,3.90
2018-04-02T04:09:52.449Z,4.30
2018-04-02T04:12:56.556Z,4.33
2018-04-02T04:15:59.910Z,4.37
2018-04-02T04:19:03.252Z,3.97
2018-04-02T04:22:06.643Z,3.47
2018-04-02T04:25:10.777Z,4.23
2018-04-02T04:28:14.944Z,3.80
2018-04-02T04:31:18.294Z,3.40
2018-04-02T04:34:22.405Z,3.47
2018-04-02T04:37:26.530Z,3.37
2018-04-02T04:40:30.698Z,3.43
2018-04-02T04:43:34.036Z,3.00
2018-04-02T04:46:38.149Z,3.67
2018-04-02T04:49:41.528Z,3.43
2018-04-02T04:52:44.872Z,3.80
2018-04-02T04:55:48.224Z,3.93
2018-04-02T04:58:51.577Z,3.50
2018-04-02T05:01:54.925Z,3.27
2018-04-02T05:04:58.344Z,3.43
2018-04-02T05:08:01.694Z,2.93
2018-04-02T05:11:05.043Z,2.93
2018-04-02T05:14:09.165Z,3.10
2018-04-02T05:17:13.273Z,3.10
2018-04-02T05:20:16.627Z,3.00
2018-04-02T05:23:20.009Z,3.40
2018-04-02T05:26:23.404Z,2.63
2018-04-02T05:29:26.752Z,2.70
2018-04-02T05:32:30.233Z,2.93
2018-04-02T05:35:33.797Z,2.53
2018-04-02T05:38:37.166Z,2.70
2018-04-02T05:41:40.545Z,2.53
2018-04-02T05:44:43.919Z,3.07
2018-04-02T05:47:47.281Z,2.53
2018-04-02T05:50:51.596Z,2.87
2018-04-02T05:53:55.903Z,2.50
2018-04-02T05:56:59.292Z,2.60
2018-04-02T06:00:03.682Z,2.87
2018-04-02T06:03:07.031Z,2.57
2018-04-02T06:06:10.470Z,2.77
2018-04-02T06:09:13.839Z,2.87
2018-04-02T06:12:17.944Z,2.70
2018-04-02T06:15:21.449Z,2.73
2018-04-02T06:18:24.909Z,2.30
2018-04-02T06:21:28.259Z,2.60
2018-04-02T06:24:32.504Z,2.50
2018-04-02T06:27:35.829Z,2.70
2018-04-02T06:30:39.201Z,3.10
2018-04-02T06:33:42.547Z,2.80
2018-04-02T06:36:46.690Z,2.50
2018-04-02T06:39:50.816Z,2.53
2018-04-02T06:42:54.978Z,2.53
2018-04-02T06:45:58.346Z,2.57
2018-04-02T06:49:01.736Z,2.63
2018-04-02T06:52:05.856Z,2.50
2018-04-02T06:55:09.344Z,2.07
2018-04-02T06:58:12.732Z,2.40
2018-04-02T07:01:16.081Z,2.17
2018-04-02T07:04:19.421Z,2.23
2018-04-02T07:07:23.535Z,2.00
2018-04-02T07:10:27.680Z,2.40
2018-04-02T07:13:31.841Z,2.20
2018-04-02T07:16:35.190Z,1.83
2018-04-02T07:19:39.405Z,2.37
2018-04-02T07:22:43.518Z,2.47
2018-04-02T07:25:46.865Z,1.90
2018-04-02T07:28:50.219Z,2.40
2018-04-02T07:31:54.337Z,2.10
2018-04-02T07:34:58.456Z,2.30
2018-04-02T07:38:02.584Z,2.40
2018-04-02T07:41:06.694Z,2.17
2018-04-02T07:44:10.905Z,1.90
2018-04-02T07:47:15.025Z,2.73
2018-04-02T07:50:19.185Z,1.90
2018-04-02T07:53:22.538Z,2.20
2018-04-02T07:56:26.737Z,1.87
2018-04-02T07:59:30.856Z,2.33
2018-04-02T08:02:34.969Z,2.10
2018-04-02T08:05:40.745Z,2.37
2018-04-02T08:08:44.881Z,2.20
2018-04-02T08:11:48.257Z,1.97
2018-04-02T08:14:52.402Z,1.87
2018-04-02T08:17:55.758Z,1.67
2018-04-02T08:20:59.399Z,1.60
2018-04-02T08:24:02.769Z,1.77
2018-04-02T08:27:06.128Z,2.20
2018-04-02T08:30:09.491Z,1.87
2018-04-02T08:33:13.685Z,1.83
2018-04-02T08:36:17.038Z,1.37
2018-04-02T08:39:20.393Z,1.37
2018-04-02T08:42:24.573Z,1.40
2018-04-02T08:45:27.936Z,1.50
2018-04-02T08:48:31.340Z,1.40
2018-04-02T08:51:34.699Z,1.47
2018-04-02T08:54:38.831Z,1.30
2018-04-02T08:57:43.008Z,1.00
2018-04-02T09:00:46.381Z,1.30
2018-04-02T09:03:49.762Z,1.30
2018-04-02T09:06:53.113Z,1.13
2018-04-02T09:09:57.238Z,1.10
2018-04-02T09:13:02.112Z,1.10
2018-04-02T09:16:05.686Z,1.17
2018-04-02T09:19:09.044Z,1.20
2018-04-02T09:22:12.395Z,1.13
2018-04-02T09:25:16.508Z,1.80
2018-04-02T09:28:20.616Z,1.10
2018-04-02T09:31:23.965Z,1.30
2018-04-02T09:34:27.353Z,1.10
2018-04-02T09:37:30.732Z,1.10
2018-04-02T09:40:34.920Z,1.23
2018-04-02T09:43:38.293Z,1.20
2018-04-02T09:46:41.767Z,1.57
2018-04-02T09:49:45.145Z,1.20
2018-04-02T09:52:49.266Z,1.20
2018-04-02T09:55:53.539Z,1.30
2018-04-02T09:58:56.902Z,1.03
2018-04-02T10:02:00.240Z,0.90
2018-04-02T10:05:03.754Z,1.00
2018-04-02T10:08:07.025Z,1.20
2018-04-02T10:11:10.379Z,1.00
2018-04-02T10:14:14.513Z,1.33
2018-04-02T10:17:17.873Z,1.60
2018-04-02T10:20:21.267Z,1.27
2018-04-02T10:23:24.641Z,1.17
2018-04-02T10:26:28.015Z,1.00
2018-04-02T10:29:31.365Z,1.10
2018-04-02T10:32:34.717Z,1.20
2018-04-02T10:35:38.265Z,1.17
2018-04-02T10:38:41.621Z,1.10
2018-04-02T10:41:45.007Z,1.20
2018-04-02T10:44:48.381Z,1.30
2018-04-02T10:47:52.543Z,1.10
2018-04-02T10:50:55.891Z,1.20
2018-04-02T10:54:00.044Z,1.10
2018-04-02T10:57:03.417Z,1.10
2018-04-02T11:00:07.569Z,1.30
2018-04-02T11:03:10.928Z,1.00
2018-04-02T11:06:15.093Z,1.33
2018-04-02T11:09:18.419Z,1.20
2018-04-02T11:12:21.852Z,1.60
2018-04-02T11:15:25.983Z,2.07
2018-04-02T11:18:29.349Z,1.67
2018-04-02T11:21:32.729Z,1.30
2018-04-02T11:24:36.089Z,1.20
2018-04-02T11:27:39.683Z,1.33
2018-04-02T11:30:43.025Z,1.30
2018-04-02T11:33:46.384Z,1.77
2018-04-02T11:36:49.848Z,2.40
2018-04-02T11:39:53.231Z,1.27
2018-04-02T11:42:56.603Z,1.40
2018-04-02T11:45:59.968Z,1.40
2018-04-02T11:49:04.117Z,1.10
2018-04-02T11:52:07.473Z,1.40
2018-04-02T11:55:10.889Z,1.10
2018-04-02T11:58:15.112Z,1.70
2018-04-02T12:01:18.483Z,1.40
2018-04-02T12:04:21.875Z,1.50
2018-04-02T12:07:25.310Z,1.37
2018-04-02T12:10:28.670Z,1.40
2018-04-02T12:13:32.041Z,1.73
2018-04-02T12:16:35.389Z,1.80
2018-04-02T12:19:39.559Z,1.60
2018-04-02T12:22:42.911Z,1.10
2018-04-02T12:25:47.035Z,1.50
2018-04-02T12:28:51.282Z,1.50
2018-04-02T12:31:54.678Z,1.23
2018-04-02T12:34:58.034Z,1.33
2018-04-02T12:38:01.374Z,1.10
2018-04-02T12:41:04.787Z,1.20
2018-04-02T12:44:08.140Z,1.30
2018-04-02T12:47:12.248Z,1.43
2018-04-02T12:50:15.609Z,1.30
2018-04-02T12:53:18.971Z,1.10
2018-04-02T12:56:22.365Z,1.40
2018-04-02T12:59:26.545Z,1.20
2018-04-02T13:02:29.910Z,1.10
2018-04-02T13:05:33.513Z,1.40
2018-04-02T13:08:36.866Z,1.30
2018-04-02T13:11:40.989Z,1.20
2018-04-02T13:14:45.129Z,1.60
2018-04-02T13:17:48.489Z,1.50
2018-04-02T13:20:51.854Z,1.43
2018-04-02T13:23:55.233Z,1.20
2018-04-02T13:26:58.597Z,1.57
2018-04-02T13:30:01.963Z,1.30
2018-04-02T13:33:05.304Z,1.37
2018-04-02T13:36:09.469Z,1.50
2018-04-02T13:39:12.858Z,1.47
2018-04-02T13:42:16.222Z,1.53
2018-04-02T13:45:20.378Z,1.73
2018-04-02T13:48:23.778Z,1.60
2018-04-02T13:51:27.150Z,1.70
2018-04-02T13:54:30.579Z,1.80
2018-04-02T13:57:33.933Z,1.60
2018-04-02T14:00:38.097Z,1.80
2018-04-02T14:03:41.445Z,1.30
2018-04-02T14:06:45.562Z,1.87
2018-04-02T14:09:49.702Z,1.80
2018-04-02T14:12:53.059Z,1.70
2018-04-02T14:15:56.443Z,1.47
2018-04-02T14:18:59.902Z,1.47
2018-04-02T14:22:03.256Z,1.60
2018-04-02T14:25:06.623Z,1.67
2018-04-02T14:28:09.993Z,1.40
2018-04-02T14:31:13.370Z,1.50
2018-04-02T14:34:17.608Z,1.70
2018-04-02T14:37:21.743Z,2.03
2018-04-02T14:40:25.137Z,2.17
2018-04-02T14:43:28.511Z,1.47
2018-04-02T14:46:32.657Z,2.90
2018-04-02T14:49:36.022Z,1.70
2018-04-02T14:52:40.197Z,1.60
2018-04-02T14:55:43.554Z,1.50
2018-04-02T14:58:47.678Z,1.83
2018-04-02T15:01:51.046Z,1.40
2018-04-02T15:04:54.487Z,1.70
2018-04-02T15:07:57.863Z,2.20
2018-04-02T15:11:01.985Z,1.80
2018-04-02T15:14:06.140Z,1.53
2018-04-02T15:17:09.526Z,1.97
2018-04-02T15:20:12.901Z,2.10
2018-04-02T15:23:17.039Z,2.30
2018-04-02T15:26:20.400Z,1.90
2018-04-02T15:29:23.749Z,2.03
2018-04-02T15:32:27.153Z,2.17
2018-04-02T15:35:30.531Z,3.50
2018-04-02T15:38:33.878Z,2.00
2018-04-02T15:41:37.228Z,2.07
2018-04-02T15:44:40.591Z,2.20
2018-04-02T15:47:44.092Z,2.07
2018-04-02T15:50:47.563Z,2.20
2018-04-02T15:53:50.979Z,2.43
2018-04-02T15:56:54.402Z,2.43
2018-04-02T15:59:57.814Z,1.93
2018-04-02T16:03:02.148Z,2.23
2018-04-02T16:06:05.538Z,2.30
2018-04-02T16:09:08.929Z,2.20
2018-04-02T16:12:13.058Z,1.87
2018-04-02T16:15:17.325Z,2.17
2018-04-02T16:18:20.889Z,1.90
2018-04-02T16:21:24.294Z,2.10
2018-04-02T16:24:27.692Z,2.30
2018-04-02T16:27:31.062Z,2.00
2018-04-02T16:30:35.178Z,2.07
2018-04-02T16:33:38.869Z,3.10
2018-04-02T16:39:43.375Z,2.90
2018-04-02T16:42:46.843Z,3.37
2018-04-02T16:45:50.968Z,5.30
2018-04-02T16:48:54.396Z,3.70
2018-04-02T16:51:57.769Z,3.20
2018-04-02T16:55:01.189Z,2.60
2018-04-02T16:58:04.568Z,2.53
2018-04-02T17:01:08.015Z,3.03
2018-04-02T17:04:11.392Z,2.17
2018-04-02T17:07:14.735Z,5.73
2018-04-02T17:10:18.098Z,2.60
2018-04-02T17:13:21.476Z,2.70
2018-04-02T17:16:24.876Z,2.80
2018-04-02T17:19:28.257Z,3.10
2018-04-02T17:22:32.386Z,3.33
2018-04-02T17:25:35.820Z,2.73
2018-04-02T17:28:39.186Z,2.73
2018-04-02T17:31:42.624Z,1.93
2018-04-02T17:34:46.028Z,2.20
2018-04-02T17:37:49.400Z,2.30
2018-04-02T17:40:52.783Z,6.80
2018-04-02T17:43:56.314Z,14.20
2018-04-02T17:46:59.761Z,12.53
2018-04-02T17:50:03.300Z,14.87
2018-04-02T17:53:06.692Z,13.70
2018-04-02T17:56:10.221Z,8.37
2018-04-02T17:59:13.632Z,6.40
2018-04-02T18:02:16.978Z,4.70
2018-04-02T18:05:21.127Z,3.47
2018-04-02T18:08:24.522Z,3.43
2018-04-02T18:11:27.907Z,3.47
2018-04-02T18:14:31.276Z,3.20
2018-04-02T18:17:34.667Z,3.73
2018-04-02T18:20:38.039Z,3.57
2018-04-02T18:23:41.420Z,3.00
2018-04-02T18:26:44.802Z,3.30
2018-04-02T18:29:48.190Z,3.63
2018-04-02T18:32:52.446Z,3.50
2018-04-02T18:35:55.855Z,4.40
2018-04-02T18:38:59.252Z,4.20
2018-04-02T18:42:02.648Z,3.50
2018-04-02T18:45:06.180Z,3.90
2018-04-02T18:48:09.533Z,3.83
2018-04-02T18:51:12.934Z,3.47
2018-04-02T18:54:16.286Z,3.57
2018-04-02T18:57:19.686Z,4.10
2018-04-02T19:00:24.576Z,4.10
2018-04-02T19:03:27.982Z,3.93
2018-04-02T19:06:31.348Z,4.60
2018-04-02T19:09:35.533Z,4.80
2018-04-02T19:12:39.704Z,4.03
2018-04-02T19:15:43.070Z,4.10
2018-04-02T19:18:47.293Z,3.97
2018-04-02T19:21:51.446Z,3.90
2018-04-02T19:24:54.851Z,4.10
2018-04-02T19:27:58.248Z,3.57
2018-04-02T19:31:01.736Z,4.17
2018-04-02T19:34:05.130Z,3.87
2018-04-02T19:37:08.494Z,4.57
2018-04-02T19:40:12.649Z,3.90
2018-04-02T19:43:16.080Z,3.93
2018-04-02T19:46:19.476Z,4.00
2018-04-02T19:49:22.890Z,3.90
2018-04-02T19:52:26.256Z,4.50
2018-04-02T19:55:29.793Z,4.07
2018-04-02T19:58:33.155Z,4.43
2018-04-02T20:01:36.541Z,4.40
2018-04-02T20:04:39.945Z,4.50
2018-04-02T20:07:43.323Z,4.80
2018-04-02T20:10:47.484Z,4.90
2018-04-02T20:13:50.913Z,5.43
2018-04-02T20:16:54.305Z,6.70
2018-04-02T20:19:57.740Z,6.17
2018-04-02T20:23:01.916Z,6.67
2018-04-02T20:26:05.301Z,7.70
2018-04-02T20:29:08.688Z,7.43
2018-04-02T20:32:12.097Z,7.93
2018-04-02T20:35:15.494Z,8.90
2018-04-02T20:38:18.843Z,8.63
2018-04-02T20:41:22.206Z,9.47
2018-04-02T20:44:25.638Z,10.13
2018-04-02T20:47:29.917Z,10.57
2018-04-02T20:50:33.330Z,11.17
2018-04-02T20:53:36.713Z,11.60
2018-04-02T20:56:40.219Z,12.43
2018-04-02T20:59:43.587Z,14.60
2018-04-02T21:02:47.021Z,13.47
2018-04-02T21:05:50.531Z,13.80
2018-04-02T21:08:53.906Z,13.87
2018-04-02T21:12:00.164Z,13.93
2018-04-02T21:15:03.569Z,13.57
2018-04-02T21:18:06.930Z,13.30
2018-04-02T21:21:10.349Z,13.80
2018-04-02T21:24:14.494Z,13.83
2018-04-02T21:27:17.963Z,14.87
2018-04-02T21:30:22.236Z,15.30
2018-04-02T21:33:25.617Z,16.07
2018-04-02T21:36:28.990Z,14.60
2018-04-02T21:39:33.135Z,16.00
2018-04-02T21:42:36.511Z,16.33
2018-04-02T21:45:41.298Z,17.60
2018-04-02T21:48:44.667Z,17.03
2018-04-02T21:51:48.038Z,17.90
2018-04-02T21:54:52.425Z,18.20
2018-04-02T21:57:55.870Z,17.83
2018-04-02T22:00:59.234Z,19.20
2018-04-02T22:04:02.581Z,18.67
2018-04-02T22:07:06.023Z,18.23
2018-04-02T22:10:09.409Z,19.43
2018-04-02T22:13:12.769Z,21.10
2018-04-02T22:16:16.128Z,20.23
2018-04-02T22:19:19.485Z,20.27
2018-04-02T22:22:22.864Z,20.57
2018-04-02T22:25:26.221Z,22.50
2018-04-02T22:28:29.590Z,20.33
2018-04-02T22:31:32.959Z,21.63
2018-04-02T22:34:37.083Z,21.37
2018-04-02T22:37:40.446Z,22.30
2018-04-02T22:40:43.816Z,21.37
2018-04-02T22:43:47.177Z,20.03
2018-04-02T22:46:50.537Z,20.63
2018-04-02T22:49:53.869Z,17.73
2018-04-02T22:52:57.243Z,18.10
2018-04-02T22:56:00.590Z,17.80
2018-04-02T22:59:03.948Z,18.13
2018-04-02T23:02:08.099Z,19.60
2018-04-02T23:05:11.444Z,20.40
2018-04-02T23:08:16.537Z,21.27
2018-04-02T23:11:19.971Z,20.23
2018-04-02T23:14:23.356Z,17.63
2018-04-02T23:17:26.926Z,18.77
2018-04-02T23:20:30.273Z,17.47
2018-04-02T23:23:33.706Z,18.13
2018-04-02T23:26:37.838Z,17.97
2018-04-02T23:29:41.957Z,15.17
2018-04-02T23:32:45.309Z,16.00
2018-04-02T23:35:49.437Z,13.77
2018-04-02T23:38:53.553Z,13.00
2018-04-02T23:41:56.897Z,13.43
2018-04-02T23:45:00.243Z,13.13
2018-04-02T23:48:03.598Z,14.50
2018-04-02T23:51:06.944Z,13.47
2018-04-02T23:54:12.150Z,15.93
2018-04-02T23:57:15.513Z,15.13
